Terminal Aerodrome Forecast
Issued by NWS

Home | Current Version | Previous Version | Text Only | Print | Product List | Glossary Off
Versions: 1 2 3 4 5 6 7 8 9 10 11 12 13 14 15 16 17 18 19 20 21 22 23 24 25 26 27 28

000
FTUS43 KLOT 231537 AAB
TAFORD
TAF AMD
KORD 231537Z 2316/2418 22007KT P6SM -SHRA SCT030 OVC060
     FM232100 13007KT 5SM -SHRA VCTS BKN035CB OVC050
     FM240100 06006KT 6SM -SHRA SCT020 OVC030
     FM240300 05006KT 6SM BR VCSH SCT010 OVC020
     FM240500 03007KT 5SM BR SCT006 OVC010=

USA.gov is the U.S. government's official web portal to all federal, state and local government web resources and services.